sensor_id;sensor_type;location;lat;lon;timestamp;temperature;humidity
26952;DHT22;14507;52.418;13.398;2022-12-20T00:00:54;3.80;99.90
26952;DHT22;14507;52.418;13.398;2022-12-20T00:03:20;3.80;99.90
26952;DHT22;14507;52.418;13.398;2022-12-20T00:05:46;3.80;99.90
26952;DHT22;14507;52.418;13.398;2022-12-20T00:08:12;3.80;99.90
26952;DHT22;14507;52.418;13.398;2022-12-20T00:10:39;3.90;99.90
26952;DHT22;14507;52.418;13.398;2022-12-20T00:13:06;3.80;99.90
26952;DHT22;14507;52.418;13.398;2022-12-20T00:15:32;3.90;99.90
26952;DHT22;14507;52.418;13.398;2022-12-20T00:17:58;3.90;99.90
26952;DHT22;14507;52.418;13.398;2022-12-20T00:20:25;3.90;99.90
26952;DHT22;14507;52.418;13.398;2022-12-20T00:22:51;4.10;99.90
26952;DHT22;14507;52.418;13.398;2022-12-20T00:25:17;4.00;99.90
26952;DHT22;14507;52.418;13.398;2022-12-20T00:27:44;3.90;99.90
26952;DHT22;14507;52.418;13.398;2022-12-20T00:30:10;4.00;99.90
26952;DHT22;14507;52.418;13.398;2022-12-20T00:32:36;4.00;99.90
26952;DHT22;14507;52.418;13.398;2022-12-20T00:35:02;4.00;99.90
26952;DHT22;14507;52.418;13.398;2022-12-20T00:37:27;4.00;99.90
26952;DHT22;14507;52.418;13.398;2022-12-20T00:39:53;4.00;99.90
26952;DHT22;14507;52.418;13.398;2022-12-20T00:42:19;4.00;99.90
26952;DHT22;14507;52.418;13.398;2022-12-20T00:44:44;4.00;99.90
26952;DHT22;14507;52.418;13.398;2022-12-20T00:47:10;4.10;99.90
26952;DHT22;14507;52.418;13.398;2022-12-20T00:49:36;4.10;99.90
26952;DHT22;14507;52.418;13.398;2022-12-20T00:52:01;4.00;99.90
26952;DHT22;14507;52.418;13.398;2022-12-20T00:54:27;4.10;99.90
26952;DHT22;14507;52.418;13.398;2022-12-20T00:56:53;4.00;99.90
26952;DHT22;14507;52.418;13.398;2022-12-20T00:59:19;4.00;99.90
26952;DHT22;14507;52.418;13.398;2022-12-20T01:01:46;4.20;99.90
26952;DHT22;14507;52.418;13.398;2022-12-20T01:04:12;4.10;99.90
26952;DHT22;14507;52.418;13.398;2022-12-20T01:06:38;4.10;99.90
26952;DHT22;14507;52.418;13.398;2022-12-20T01:09:04;4.10;99.90
26952;DHT22;14507;52.418;13.398;2022-12-20T01:11:32;4.10;99.90
26952;DHT22;14507;52.418;13.398;2022-12-20T01:14:05;4.10;99.90
26952;DHT22;14507;52.418;13.398;2022-12-20T01:16:35;4.20;99.90
26952;DHT22;14507;52.418;13.398;2022-12-20T01:19:02;4.20;99.90
26952;DHT22;14507;52.418;13.398;2022-12-20T01:21:29;4.10;99.90
26952;DHT22;14507;52.418;13.398;2022-12-20T01:23:55;4.20;99.90
26952;DHT22;14507;52.418;13.398;2022-12-20T01:26:22;4.20;99.90
26952;DHT22;14507;52.418;13.398;2022-12-20T01:28:51;4.10;99.90
26952;DHT22;14507;52.418;13.398;2022-12-20T01:31:18;4.10;99.90
26952;DHT22;14507;52.418;13.398;2022-12-20T01:33:45;4.10;99.90
26952;DHT22;14507;52.418;13.398;2022-12-20T01:36:14;4.10;99.90
26952;DHT22;14507;52.418;13.398;2022-12-20T01:38:41;4.10;99.90
26952;DHT22;14507;52.418;13.398;2022-12-20T01:41:07;4.20;99.90
26952;DHT22;14507;52.418;13.398;2022-12-20T01:43:50;4.10;99.90
26952;DHT22;14507;52.418;13.398;2022-12-20T01:46:18;4.20;99.90
26952;DHT22;14507;52.418;13.398;2022-12-20T01:49:23;4.10;99.90
26952;DHT22;14507;52.418;13.398;2022-12-20T01:51:55;4.20;99.90
26952;DHT22;14507;52.418;13.398;2022-12-20T01:54:33;4.20;99.90
26952;DHT22;14507;52.418;13.398;2022-12-20T01:57:04;4.20;99.90
26952;DHT22;14507;52.418;13.398;2022-12-20T01:59:31;4.20;99.90
26952;DHT22;14507;52.418;13.398;2022-12-20T02:02:00;4.20;99.90
26952;DHT22;14507;52.418;13.398;2022-12-20T02:04:27;4.20;99.90
26952;DHT22;14507;52.418;13.398;2022-12-20T02:06:53;4.20;99.90
26952;DHT22;14507;52.418;13.398;2022-12-20T02:09:19;4.20;99.90
26952;DHT22;14507;52.418;13.398;2022-12-20T02:25:25;4.20;99.90
26952;DHT22;14507;52.418;13.398;2022-12-20T02:30:42;4.20;99.90
26952;DHT22;14507;52.418;13.398;2022-12-20T02:33:11;4.30;99.90
26952;DHT22;14507;52.418;13.398;2022-12-20T02:35:39;4.40;99.90
26952;DHT22;14507;52.418;13.398;2022-12-20T02:38:31;4.30;99.90
26952;DHT22;14507;52.418;13.398;2022-12-20T02:41:17;4.30;99.90
26952;DHT22;14507;52.418;13.398;2022-12-20T02:43:47;4.40;99.90
26952;DHT22;14507;52.418;13.398;2022-12-20T02:46:33;4.30;99.90
26952;DHT22;14507;52.418;13.398;2022-12-20T02:49:02;4.40;99.90
26952;DHT22;14507;52.418;13.398;2022-12-20T02:51:30;4.40;99.90
26952;DHT22;14507;52.418;13.398;2022-12-20T02:53:58;4.40;99.90
26952;DHT22;14507;52.418;13.398;2022-12-20T02:56:37;4.40;99.90
26952;DHT22;14507;52.418;13.398;2022-12-20T02:59:25;4.40;99.90
26952;DHT22;14507;52.418;13.398;2022-12-20T03:01:53;4.40;99.90
26952;DHT22;14507;52.418;13.398;2022-12-20T03:04:24;4.50;99.90
26952;DHT22;14507;52.418;13.398;2022-12-20T03:07:02;4.50;99.90
26952;DHT22;14507;52.418;13.398;2022-12-20T03:09:30;4.50;99.90
26952;DHT22;14507;52.418;13.398;2022-12-20T03:11:57;4.50;99.90
26952;DHT22;14507;52.418;13.398;2022-12-20T03:14:22;4.60;99.90
26952;DHT22;14507;52.418;13.398;2022-12-20T03:16:49;4.60;99.90
26952;DHT22;14507;52.418;13.398;2022-12-20T03:19:14;4.50;99.90
26952;DHT22;14507;52.418;13.398;2022-12-20T03:21:41;4.50;99.90
26952;DHT22;14507;52.418;13.398;2022-12-20T03:24:06;4.60;99.90
26952;DHT22;14507;52.418;13.398;2022-12-20T03:26:32;4.60;99.90
26952;DHT22;14507;52.418;13.398;2022-12-20T03:28:57;4.60;99.90
26952;DHT22;14507;52.418;13.398;2022-12-20T03:31:23;4.60;99.90
26952;DHT22;14507;52.418;13.398;2022-12-20T03:33:49;4.60;99.90
26952;DHT22;14507;52.418;13.398;2022-12-20T03:36:14;4.60;99.90
26952;DHT22;14507;52.418;13.398;2022-12-20T03:38:40;4.60;99.90
26952;DHT22;14507;52.418;13.398;2022-12-20T03:41:05;4.70;99.90
26952;DHT22;14507;52.418;13.398;2022-12-20T03:43:31;4.60;99.90
26952;DHT22;14507;52.418;13.398;2022-12-20T03:45:57;4.70;99.90
26952;DHT22;14507;52.418;13.398;2022-12-20T03:48:22;4.70;99.90
26952;DHT22;14507;52.418;13.398;2022-12-20T03:50:48;4.60;99.90
26952;DHT22;14507;52.418;13.398;2022-12-20T03:53:14;4.70;99.90
26952;DHT22;14507;52.418;13.398;2022-12-20T03:55:39;4.70;99.90
26952;DHT22;14507;52.418;13.398;2022-12-20T03:58:05;4.60;99.90
26952;DHT22;14507;52.418;13.398;2022-12-20T04:00:31;4.70;99.90
26952;DHT22;14507;52.418;13.398;2022-12-20T04:02:56;4.80;99.90
26952;DHT22;14507;52.418;13.398;2022-12-20T04:05:22;4.70;99.90
26952;DHT22;14507;52.418;13.398;2022-12-20T04:07:48;4.70;99.90
26952;DHT22;14507;52.418;13.398;2022-12-20T04:10:13;4.70;99.90
26952;DHT22;14507;52.418;13.398;2022-12-20T04:12:39;4.70;99.90
26952;DHT22;14507;52.418;13.398;2022-12-20T04:15:05;4.70;99.90
26952;DHT22;14507;52.418;13.398;2022-12-20T04:17:31;4.70;99.90
26952;DHT22;14507;52.418;13.398;2022-12-20T04:19:56;4.70;99.90
26952;DHT22;14507;52.418;13.398;2022-12-20T04:22:22;4.70;99.90
26952;DHT22;14507;52.418;13.398;2022-12-20T04:24:48;4.80;99.90
26952;DHT22;14507;52.418;13.398;2022-12-20T04:27:13;4.70;99.90
26952;DHT22;14507;52.418;13.398;2022-12-20T04:29:39;4.80;99.90
26952;DHT22;14507;52.418;13.398;2022-12-20T04:32:04;4.80;99.90
26952;DHT22;14507;52.418;13.398;2022-12-20T04:34:30;4.70;99.90
26952;DHT22;14507;52.418;13.398;2022-12-20T04:36:56;4.80;99.90
26952;DHT22;14507;52.418;13.398;2022-12-20T04:39:21;4.80;99.90
26952;DHT22;14507;52.418;13.398;2022-12-20T04:41:47;4.70;99.90
26952;DHT22;14507;52.418;13.398;2022-12-20T04:44:12;4.70;99.90
26952;DHT22;14507;52.418;13.398;2022-12-20T04:46:38;4.70;99.90
26952;DHT22;14507;52.418;13.398;2022-12-20T04:49:03;4.70;99.90
26952;DHT22;14507;52.418;13.398;2022-12-20T04:51:29;4.70;99.90
26952;DHT22;14507;52.418;13.398;2022-12-20T04:53:55;4.60;99.90
26952;DHT22;14507;52.418;13.398;2022-12-20T04:56:24;4.70;99.90
26952;DHT22;14507;52.418;13.398;2022-12-20T04:58:51;4.70;99.90
26952;DHT22;14507;52.418;13.398;2022-12-20T05:01:18;4.70;99.90
26952;DHT22;14507;52.418;13.398;2022-12-20T05:03:45;4.60;99.90
26952;DHT22;14507;52.418;13.398;2022-12-20T05:06:11;4.60;99.90
26952;DHT22;14507;52.418;13.398;2022-12-20T05:08:37;4.60;99.90
26952;DHT22;14507;52.418;13.398;2022-12-20T05:11:04;4.60;99.90
26952;DHT22;14507;52.418;13.398;2022-12-20T05:13:29;4.60;99.90
26952;DHT22;14507;52.418;13.398;2022-12-20T05:15:56;4.60;99.90
26952;DHT22;14507;52.418;13.398;2022-12-20T05:18:23;4.60;99.90
26952;DHT22;14507;52.418;13.398;2022-12-20T05:20:49;4.50;99.90
26952;DHT22;14507;52.418;13.398;2022-12-20T05:23:34;4.50;99.90
26952;DHT22;14507;52.418;13.398;2022-12-20T05:26:18;4.60;99.90
26952;DHT22;14507;52.418;13.398;2022-12-20T05:28:44;4.60;99.90
26952;DHT22;14507;52.418;13.398;2022-12-20T05:31:10;4.60;99.90
26952;DHT22;14507;52.418;13.398;2022-12-20T05:33:36;4.60;99.90
26952;DHT22;14507;52.418;13.398;2022-12-20T05:36:01;4.60;99.90
26952;DHT22;14507;52.418;13.398;2022-12-20T05:38:27;4.50;99.90
26952;DHT22;14507;52.418;13.398;2022-12-20T05:40:52;4.60;99.90
26952;DHT22;14507;52.418;13.398;2022-12-20T05:43:19;4.60;99.90
26952;DHT22;14507;52.418;13.398;2022-12-20T05:45:50;4.60;99.90
26952;DHT22;14507;52.418;13.398;2022-12-20T05:48:18;4.60;99.90
26952;DHT22;14507;52.418;13.398;2022-12-20T05:50:45;4.60;99.90
26952;DHT22;14507;52.418;13.398;2022-12-20T05:53:15;4.60;99.90
26952;DHT22;14507;52.418;13.398;2022-12-20T05:55:47;4.70;99.90
26952;DHT22;14507;52.418;13.398;2022-12-20T05:58:14;4.70;99.90
26952;DHT22;14507;52.418;13.398;2022-12-20T06:00:40;4.70;99.90
26952;DHT22;14507;52.418;13.398;2022-12-20T06:03:07;4.80;99.90
26952;DHT22;14507;52.418;13.398;2022-12-20T06:05:35;4.80;99.90
26952;DHT22;14507;52.418;13.398;2022-12-20T06:08:02;4.80;99.90
26952;DHT22;14507;52.418;13.398;2022-12-20T06:10:28;4.90;99.90
26952;DHT22;14507;52.418;13.398;2022-12-20T06:12:54;4.80;99.90
26952;DHT22;14507;52.418;13.398;2022-12-20T06:15:19;4.90;99.90
26952;DHT22;14507;52.418;13.398;2022-12-20T06:17:45;4.90;99.90
26952;DHT22;14507;52.418;13.398;2022-12-20T06:20:10;4.90;99.90
26952;DHT22;14507;52.418;13.398;2022-12-20T06:22:36;4.90;99.90
26952;DHT22;14507;52.418;13.398;2022-12-20T06:25:03;4.90;99.90
26952;DHT22;14507;52.418;13.398;2022-12-20T06:27:30;4.90;99.90
26952;DHT22;14507;52.418;13.398;2022-12-20T06:29:56;5.00;99.90
26952;DHT22;14507;52.418;13.398;2022-12-20T06:32:21;5.00;99.90
26952;DHT22;14507;52.418;13.398;2022-12-20T06:34:47;5.00;99.90
26952;DHT22;14507;52.418;13.398;2022-12-20T06:37:12;5.00;99.90
26952;DHT22;14507;52.418;13.398;2022-12-20T06:39:38;5.00;99.90
26952;DHT22;14507;52.418;13.398;2022-12-20T06:42:04;5.10;99.90
26952;DHT22;14507;52.418;13.398;2022-12-20T06:44:31;5.10;99.90
26952;DHT22;14507;52.418;13.398;2022-12-20T06:46:57;5.10;99.90
26952;DHT22;14507;52.418;13.398;2022-12-20T06:49:22;5.20;99.90
26952;DHT22;14507;52.418;13.398;2022-12-20T06:51:48;5.20;99.90
26952;DHT22;14507;52.418;13.398;2022-12-20T06:54:13;5.20;99.90
26952;DHT22;14507;52.418;13.398;2022-12-20T06:56:39;5.20;99.90
26952;DHT22;14507;52.418;13.398;2022-12-20T06:59:05;5.20;99.90
26952;DHT22;14507;52.418;13.398;2022-12-20T07:01:30;5.20;99.90
26952;DHT22;14507;52.418;13.398;2022-12-20T07:03:56;5.30;99.90
26952;DHT22;14507;52.418;13.398;2022-12-20T07:06:22;5.30;99.90
26952;DHT22;14507;52.418;13.398;2022-12-20T07:08:47;5.30;99.90
26952;DHT22;14507;52.418;13.398;2022-12-20T07:11:13;5.30;99.90
26952;DHT22;14507;52.418;13.398;2022-12-20T07:13:39;5.40;99.90
26952;DHT22;14507;52.418;13.398;2022-12-20T07:16:05;5.30;99.90
26952;DHT22;14507;52.418;13.398;2022-12-20T07:18:31;5.40;99.90
26952;DHT22;14507;52.418;13.398;2022-12-20T07:21:04;5.40;99.90
26952;DHT22;14507;52.418;13.398;2022-12-20T07:23:31;5.40;99.90
26952;DHT22;14507;52.418;13.398;2022-12-20T07:25:59;5.40;99.90
26952;DHT22;14507;52.418;13.398;2022-12-20T07:28:25;5.40;99.90
26952;DHT22;14507;52.418;13.398;2022-12-20T07:30:52;5.40;99.90
26952;DHT22;14507;52.418;13.398;2022-12-20T07:33:18;5.40;99.90
26952;DHT22;14507;52.418;13.398;2022-12-20T07:35:44;5.40;99.90
26952;DHT22;14507;52.418;13.398;2022-12-20T07:38:12;5.40;99.90
26952;DHT22;14507;52.418;13.398;2022-12-20T07:40:41;5.30;99.90
26952;DHT22;14507;52.418;13.398;2022-12-20T07:43:08;5.40;99.90
26952;DHT22;14507;52.418;13.398;2022-12-20T07:45:34;5.50;99.90
26952;DHT22;14507;52.418;13.398;2022-12-20T07:48:00;5.40;99.90
26952;DHT22;14507;52.418;13.398;2022-12-20T07:50:27;5.50;99.90
26952;DHT22;14507;52.418;13.398;2022-12-20T07:52:53;5.60;99.90
26952;DHT22;14507;52.418;13.398;2022-12-20T07:55:19;5.50;99.90
26952;DHT22;14507;52.418;13.398;2022-12-20T07:57:50;5.50;99.90
26952;DHT22;14507;52.418;13.398;2022-12-20T08:00:17;5.50;99.90
26952;DHT22;14507;52.418;13.398;2022-12-20T08:02:56;5.60;99.90
26952;DHT22;14507;52.418;13.398;2022-12-20T08:05:23;5.60;99.90
26952;DHT22;14507;52.418;13.398;2022-12-20T08:07:49;5.60;99.90
26952;DHT22;14507;52.418;13.398;2022-12-20T08:10:16;5.60;99.90
26952;DHT22;14507;52.418;13.398;2022-12-20T08:12:44;5.70;99.90
26952;DHT22;14507;52.418;13.398;2022-12-20T08:15:11;5.60;99.90
26952;DHT22;14507;52.418;13.398;2022-12-20T08:17:37;5.60;99.90
26952;DHT22;14507;52.418;13.398;2022-12-20T08:20:04;5.60;99.90
26952;DHT22;14507;52.418;13.398;2022-12-20T08:22:31;5.60;99.90
26952;DHT22;14507;52.418;13.398;2022-12-20T08:24:57;5.60;99.90
26952;DHT22;14507;52.418;13.398;2022-12-20T08:27:23;5.70;99.90
26952;DHT22;14507;52.418;13.398;2022-12-20T08:29:48;5.70;99.90
26952;DHT22;14507;52.418;13.398;2022-12-20T08:32:14;5.70;99.90
26952;DHT22;14507;52.418;13.398;2022-12-20T08:34:40;5.70;99.90
26952;DHT22;14507;52.418;13.398;2022-12-20T08:37:06;5.70;99.90
26952;DHT22;14507;52.418;13.398;2022-12-20T08:39:32;5.80;99.90
26952;DHT22;14507;52.418;13.398;2022-12-20T08:41:58;5.80;99.90
26952;DHT22;14507;52.418;13.398;2022-12-20T08:44:23;5.80;99.90
26952;DHT22;14507;52.418;13.398;2022-12-20T08:46:50;5.80;99.90
26952;DHT22;14507;52.418;13.398;2022-12-20T08:49:15;5.70;99.90
26952;DHT22;14507;52.418;13.398;2022-12-20T08:51:41;5.80;99.90
26952;DHT22;14507;52.418;13.398;2022-12-20T08:54:07;5.80;99.90
26952;DHT22;14507;52.418;13.398;2022-12-20T08:56:32;5.90;99.90
26952;DHT22;14507;52.418;13.398;2022-12-20T08:58:58;5.80;99.90
26952;DHT22;14507;52.418;13.398;2022-12-20T09:01:24;5.90;99.90
26952;DHT22;14507;52.418;13.398;2022-12-20T09:03:51;5.90;99.90
26952;DHT22;14507;52.418;13.398;2022-12-20T09:06:21;5.90;99.90
26952;DHT22;14507;52.418;13.398;2022-12-20T09:08:47;5.90;99.90
26952;DHT22;14507;52.418;13.398;2022-12-20T09:11:15;5.90;99.90
26952;DHT22;14507;52.418;13.398;2022-12-20T09:13:43;5.90;99.90
26952;DHT22;14507;52.418;13.398;2022-12-20T09:16:11;6.00;99.90
26952;DHT22;14507;52.418;13.398;2022-12-20T09:18:37;6.10;99.90
26952;DHT22;14507;52.418;13.398;2022-12-20T09:21:04;6.10;99.90
26952;DHT22;14507;52.418;13.398;2022-12-20T09:23:31;6.20;99.90
26952;DHT22;14507;52.418;13.398;2022-12-20T09:26:01;6.20;99.90
26952;DHT22;14507;52.418;13.398;2022-12-20T09:28:29;6.30;99.90
26952;DHT22;14507;52.418;13.398;2022-12-20T09:31:02;6.30;99.90
26952;DHT22;14507;52.418;13.398;2022-12-20T09:33:29;6.30;99.90
26952;DHT22;14507;52.418;13.398;2022-12-20T09:35:56;6.40;99.90
26952;DHT22;14507;52.418;13.398;2022-12-20T09:38:21;6.40;99.90
26952;DHT22;14507;52.418;13.398;2022-12-20T09:40:50;6.50;99.90
26952;DHT22;14507;52.418;13.398;2022-12-20T09:43:17;6.50;99.90
26952;DHT22;14507;52.418;13.398;2022-12-20T09:45:46;6.60;99.90
26952;DHT22;14507;52.418;13.398;2022-12-20T09:48:19;6.70;99.90
26952;DHT22;14507;52.418;13.398;2022-12-20T09:56:57;6.80;99.90
26952;DHT22;14507;52.418;13.398;2022-12-20T09:59:24;6.90;99.90
26952;DHT22;14507;52.418;13.398;2022-12-20T10:01:50;7.00;99.90
26952;DHT22;14507;52.418;13.398;2022-12-20T10:04:25;7.10;99.90
26952;DHT22;14507;52.418;13.398;2022-12-20T10:07:07;7.20;99.90
26952;DHT22;14507;52.418;13.398;2022-12-20T10:24:11;7.50;99.90
26952;DHT22;14507;52.418;13.398;2022-12-20T10:26:16;7.50;99.90
26952;DHT22;14507;52.418;13.398;2022-12-20T10:28:42;7.40;99.90
26952;DHT22;14507;52.418;13.398;2022-12-20T10:31:13;7.40;99.90
26952;DHT22;14507;52.418;13.398;2022-12-20T10:33:39;7.50;99.90
26952;DHT22;14507;52.418;13.398;2022-12-20T10:36:22;7.50;99.90
26952;DHT22;14507;52.418;13.398;2022-12-20T10:38:50;7.50;99.90
26952;DHT22;14507;52.418;13.398;2022-12-20T10:41:19;7.60;99.90
26952;DHT22;14507;52.418;13.398;2022-12-20T10:43:48;7.60;99.90
26952;DHT22;14507;52.418;13.398;2022-12-20T10:46:15;7.60;99.90
26952;DHT22;14507;52.418;13.398;2022-12-20T10:48:46;7.70;99.90
26952;DHT22;14507;52.418;13.398;2022-12-20T10:51:15;7.80;99.90
26952;DHT22;14507;52.418;13.398;2022-12-20T10:53:55;7.80;99.90
26952;DHT22;14507;52.418;13.398;2022-12-20T10:56:31;7.90;99.90
26952;DHT22;14507;52.418;13.398;2022-12-20T10:59:03;7.90;99.90
26952;DHT22;14507;52.418;13.398;2022-12-20T11:01:48;7.90;99.90
26952;DHT22;14507;52.418;13.398;2022-12-20T11:04:40;7.90;99.90
26952;DHT22;14507;52.418;13.398;2022-12-20T11:07:27;7.90;99.90
26952;DHT22;14507;52.418;13.398;2022-12-20T11:09:59;8.00;99.90
26952;DHT22;14507;52.418;13.398;2022-12-20T11:12:25;8.10;99.90
26952;DHT22;14507;52.418;13.398;2022-12-20T11:15:15;8.10;99.90
26952;DHT22;14507;52.418;13.398;2022-12-20T11:17:46;8.10;99.90
26952;DHT22;14507;52.418;13.398;2022-12-20T11:20:40;8.00;99.90
26952;DHT22;14507;52.418;13.398;2022-12-20T11:28:47;8.00;99.90
26952;DHT22;14507;52.418;13.398;2022-12-20T11:31:25;8.00;99.90
26952;DHT22;14507;52.418;13.398;2022-12-20T11:36:54;8.10;99.90
26952;DHT22;14507;52.418;13.398;2022-12-20T11:42:07;8.10;99.90
26952;DHT22;14507;52.418;13.398;2022-12-20T11:45:03;8.10;99.90
26952;DHT22;14507;52.418;13.398;2022-12-20T11:52:59;8.20;99.90
26952;DHT22;14507;52.418;13.398;2022-12-20T11:55:29;8.30;99.90
26952;DHT22;14507;52.418;13.398;2022-12-20T12:00:24;8.40;99.90
26952;DHT22;14507;52.418;13.398;2022-12-20T12:02:52;8.40;99.90
26952;DHT22;14507;52.418;13.398;2022-12-20T12:07:55;8.40;99.90
26952;DHT22;14507;52.418;13.398;2022-12-20T12:10:24;8.40;99.90
26952;DHT22;14507;52.418;13.398;2022-12-20T12:13:17;8.40;99.90
26952;DHT22;14507;52.418;13.398;2022-12-20T12:15:55;8.40;99.90
26952;DHT22;14507;52.418;13.398;2022-12-20T12:18:30;8.40;99.90
26952;DHT22;14507;52.418;13.398;2022-12-20T12:21:18;8.30;99.90
26952;DHT22;14507;52.418;13.398;2022-12-20T12:26:29;8.30;99.90
26952;DHT22;14507;52.418;13.398;2022-12-20T12:29:16;8.20;99.90
26952;DHT22;14507;52.418;13.398;2022-12-20T12:34:55;8.20;99.90
26952;DHT22;14507;52.418;13.398;2022-12-20T12:40:27;8.20;99.90
26952;DHT22;14507;52.418;13.398;2022-12-20T12:48:35;8.20;99.90
26952;DHT22;14507;52.418;13.398;2022-12-20T12:51:04;8.20;99.90
26952;DHT22;14507;52.418;13.398;2022-12-20T12:53:50;8.30;99.90
26952;DHT22;14507;52.418;13.398;2022-12-20T13:01:54;8.20;99.90
26952;DHT22;14507;52.418;13.398;2022-12-20T13:07:01;8.20;99.90
26952;DHT22;14507;52.418;13.398;2022-12-20T13:11:54;8.20;99.90
26952;DHT22;14507;52.418;13.398;2022-12-20T13:16:47;8.20;99.90
26952;DHT22;14507;52.418;13.398;2022-12-20T13:21:58;8.10;99.90
26952;DHT22;14507;52.418;13.398;2022-12-20T13:29:52;8.00;99.90
26952;DHT22;14507;52.418;13.398;2022-12-20T13:35:30;8.00;99.90
26952;DHT22;14507;52.418;13.398;2022-12-20T13:46:00;7.90;99.90
26952;DHT22;14507;52.418;13.398;2022-12-20T13:51:03;7.90;99.90
26952;DHT22;14507;52.418;13.398;2022-12-20T13:53:30;7.90;99.90
26952;DHT22;14507;52.418;13.398;2022-12-20T13:55:56;7.90;99.90
26952;DHT22;14507;52.418;13.398;2022-12-20T13:58:27;7.80;99.90
26952;DHT22;14507;52.418;13.398;2022-12-20T14:01:03;7.80;99.90
26952;DHT22;14507;52.418;13.398;2022-12-20T14:03:30;7.80;99.90
26952;DHT22;14507;52.418;13.398;2022-12-20T14:06:10;7.70;99.90
26952;DHT22;14507;52.418;13.398;2022-12-20T14:08:45;7.80;99.90
26952;DHT22;14507;52.418;13.398;2022-12-20T14:11:19;7.80;99.90
26952;DHT22;14507;52.418;13.398;2022-12-20T14:14:02;7.70;99.90
26952;DHT22;14507;52.418;13.398;2022-12-20T14:16:31;7.70;99.90
26952;DHT22;14507;52.418;13.398;2022-12-20T14:21:23;7.60;99.90
26952;DHT22;14507;52.418;13.398;2022-12-20T14:23:51;7.60;99.90
26952;DHT22;14507;52.418;13.398;2022-12-20T14:26:23;7.60;99.90
26952;DHT22;14507;52.418;13.398;2022-12-20T14:28:51;7.60;99.90
26952;DHT22;14507;52.418;13.398;2022-12-20T14:31:35;7.60;99.90
26952;DHT22;14507;52.418;13.398;2022-12-20T14:37:16;7.60;99.90
26952;DHT22;14507;52.418;13.398;2022-12-20T14:39:30;7.50;99.90
26952;DHT22;14507;52.418;13.398;2022-12-20T14:44:34;7.50;99.90
26952;DHT22;14507;52.418;13.398;2022-12-20T14:47:26;7.50;99.90
26952;DHT22;14507;52.418;13.398;2022-12-20T14:50:00;7.50;99.90
26952;DHT22;14507;52.418;13.398;2022-12-20T14:52:32;7.50;99.90
26952;DHT22;14507;52.418;13.398;2022-12-20T14:55:16;7.50;99.90
26952;DHT22;14507;52.418;13.398;2022-12-20T14:57:46;7.40;99.90
26952;DHT22;14507;52.418;13.398;2022-12-20T15:13:32;7.40;99.90
26952;DHT22;14507;52.418;13.398;2022-12-20T15:16:25;7.30;99.90
26952;DHT22;14507;52.418;13.398;2022-12-20T15:18:53;7.30;99.90
26952;DHT22;14507;52.418;13.398;2022-12-20T15:21:33;7.30;99.90
26952;DHT22;14507;52.418;13.398;2022-12-20T15:24:01;7.30;99.90
26952;DHT22;14507;52.418;13.398;2022-12-20T15:26:28;7.30;99.90
26952;DHT22;14507;52.418;13.398;2022-12-20T15:28:55;7.30;99.90
26952;DHT22;14507;52.418;13.398;2022-12-20T15:31:22;7.20;99.90
26952;DHT22;14507;52.418;13.398;2022-12-20T15:33:49;7.20;99.90
26952;DHT22;14507;52.418;13.398;2022-12-20T15:36:24;7.20;99.90
26952;DHT22;14507;52.418;13.398;2022-12-20T15:38:54;7.20;99.90
26952;DHT22;14507;52.418;13.398;2022-12-20T15:41:22;7.20;99.90
26952;DHT22;14507;52.418;13.398;2022-12-20T15:44:02;7.20;99.90
26952;DHT22;14507;52.418;13.398;2022-12-20T15:46:29;7.20;99.90
26952;DHT22;14507;52.418;13.398;2022-12-20T15:48:55;7.10;99.90
26952;DHT22;14507;52.418;13.398;2022-12-20T15:53:57;7.10;99.90
26952;DHT22;14507;52.418;13.398;2022-12-20T15:56:25;7.10;99.90
26952;DHT22;14507;52.418;13.398;2022-12-20T15:58:51;7.10;99.90
26952;DHT22;14507;52.418;13.398;2022-12-20T16:01:52;7.10;99.90
26952;DHT22;14507;52.418;13.398;2022-12-20T16:04:17;7.10;99.90
26952;DHT22;14507;52.418;13.398;2022-12-20T16:06:45;7.10;99.90
26952;DHT22;14507;52.418;13.398;2022-12-20T16:09:11;7.10;99.90
26952;DHT22;14507;52.418;13.398;2022-12-20T16:11:37;7.00;99.90
26952;DHT22;14507;52.418;13.398;2022-12-20T16:14:03;7.00;99.90
26952;DHT22;14507;52.418;13.398;2022-12-20T16:16:34;7.00;99.90
26952;DHT22;14507;52.418;13.398;2022-12-20T16:19:01;7.10;99.90
26952;DHT22;14507;52.418;13.398;2022-12-20T16:21:32;7.00;99.90
26952;DHT22;14507;52.418;13.398;2022-12-20T16:23:58;7.00;99.90
26952;DHT22;14507;52.418;13.398;2022-12-20T16:26:26;7.00;99.90
26952;DHT22;14507;52.418;13.398;2022-12-20T16:28:53;7.00;99.90
26952;DHT22;14507;52.418;13.398;2022-12-20T16:31:33;6.90;99.90
26952;DHT22;14507;52.418;13.398;2022-12-20T16:34:04;6.90;99.90
26952;DHT22;14507;52.418;13.398;2022-12-20T16:36:31;7.10;99.90
26952;DHT22;14507;52.418;13.398;2022-12-20T16:38:57;6.90;99.90
26952;DHT22;14507;52.418;13.398;2022-12-20T16:41:26;6.90;99.90
26952;DHT22;14507;52.418;13.398;2022-12-20T16:43:53;6.90;99.90
26952;DHT22;14507;52.418;13.398;2022-12-20T16:46:21;6.90;99.90
26952;DHT22;14507;52.418;13.398;2022-12-20T16:48:46;6.80;99.90
26952;DHT22;14507;52.418;13.398;2022-12-20T16:53:58;6.80;99.90
26952;DHT22;14507;52.418;13.398;2022-12-20T16:56:24;6.80;99.90
26952;DHT22;14507;52.418;13.398;2022-12-20T16:58:50;6.70;99.90
26952;DHT22;14507;52.418;13.398;2022-12-20T17:01:23;6.70;99.90
26952;DHT22;14507;52.418;13.398;2022-12-20T17:03:50;6.70;99.90
26952;DHT22;14507;52.418;13.398;2022-12-20T17:06:17;6.80;99.90
26952;DHT22;14507;52.418;13.398;2022-12-20T17:08:43;6.80;99.90
26952;DHT22;14507;52.418;13.398;2022-12-20T17:11:18;6.80;99.90
26952;DHT22;14507;52.418;13.398;2022-12-20T17:13:46;6.60;99.90
26952;DHT22;14507;52.418;13.398;2022-12-20T17:16:13;6.70;99.90
26952;DHT22;14507;52.418;13.398;2022-12-20T17:18:40;6.70;99.90
26952;DHT22;14507;52.418;13.398;2022-12-20T17:23:42;6.60;99.90
26952;DHT22;14507;52.418;13.398;2022-12-20T17:26:12;6.60;99.90
26952;DHT22;14507;52.418;13.398;2022-12-20T17:28:38;6.60;99.90
26952;DHT22;14507;52.418;13.398;2022-12-20T17:31:17;6.60;99.90
26952;DHT22;14507;52.418;13.398;2022-12-20T17:33:48;6.60;99.90
26952;DHT22;14507;52.418;13.398;2022-12-20T17:36:14;6.60;99.90
26952;DHT22;14507;52.418;13.398;2022-12-20T17:38:39;6.60;99.90
26952;DHT22;14507;52.418;13.398;2022-12-20T17:41:19;6.60;99.90
26952;DHT22;14507;52.418;13.398;2022-12-20T17:43:45;6.60;99.90
26952;DHT22;14507;52.418;13.398;2022-12-20T17:46:10;6.60;99.90
26952;DHT22;14507;52.418;13.398;2022-12-20T17:48:36;6.60;99.90
26952;DHT22;14507;52.418;13.398;2022-12-20T17:51:02;6.60;99.90
26952;DHT22;14507;52.418;13.398;2022-12-20T17:53:28;6.70;99.90
26952;DHT22;14507;52.418;13.398;2022-12-20T17:55:53;6.70;99.90
26952;DHT22;14507;52.418;13.398;2022-12-20T17:58:19;6.70;99.90